Flight Track Log - Related Links

Times and Time Zones

All times are in EDT time to prevent confusion due to time zone crossing. See the AAL297 flight status page for this flight to view local times or setup timezone preferences in your user account.


Time Position Orientation Groundspeed Altitude Reporting Facility
EDT Latitude Longitude Course Direction KTS MPH feet Rate Location/Type
Sun 07:57:37 PM 33.9400 -118.3740 90° East 175 201 1,500  Level FlightAware ADS-B
Sun 07:57:57 PM 33.9400 -118.3550 90° East 184 212 2,200 1,680 Climbing FlightAware ADS-B
Sun 07:58:27 PM 33.9390 -118.3220 92° East 215 247 2,900 1,745 Climbing FlightAware ADS-B
Sun 07:58:52 PM 33.9380 -118.2880 92° East 234 269 3,800 2,250 Climbing FlightAware ADS-B
Sun 07:59:07 PM 33.9320 -118.2720 114° Southeast 233 268 4,400 2,800 Climbing FlightAware ADS-B
Sun 07:59:22 PM 33.9180 -118.2590 142° Southeast 234 269 5,200 2,800 Climbing FlightAware ADS-B
Sun 07:59:37 PM 33.9030 -118.2570 174° South 239 275 5,800 2,160 Climbing FlightAware ADS-B
Sun 07:59:47 PM 33.8920 -118.2600 193° South 246 283 6,100 2,400 Climbing FlightAware ADS-B
Sun 08:00:02 PM 33.8770 -118.2730 216° Southwest 251 289 6,800 2,400 Climbing FlightAware ADS-B
Sun 08:00:17 PM 33.8680 -118.2890 236° Southwest 257 296 7,300 2,400 Climbing FlightAware ADS-B
Sun 08:00:47 PM 33.8540 -118.3280 247° West 253 291 8,600 2,250 Climbing FlightAware ADS-B
Sun 08:00:57 PM 33.8490 -118.3410 245° Southwest 260 299 8,800 1,200 Climbing FlightAware ADS-B
Sun 08:01:12 PM 33.8440 -118.3640 255° West 274 315 9,100 1,527 Climbing FlightAware ADS-B
Sun 08:01:52 PM 33.8540 -118.4240 281° West 284 327 10,200 1,482 Climbing FlightAware ADS-B
Sun 08:02:37 PM 33.8720 -118.4930 287° West 313 360 11,200 1,271 Climbing FlightAware ADS-B
Sun 08:03:17 PM 33.8900 -118.5640 287° West 340 391 12,000 1,200 Climbing FlightAware ADS-B
Sun 08:04:02 PM 33.9120 -118.6470 288° West 345 397 12,900 706 Climbing FlightAware ADS-B
Sun 08:04:42 PM 33.9310 -118.7200 287° West 343 395 13,000 71 Climbing FlightAware ADS-B
Sun 08:05:27 PM 33.9520 -118.8000 288° West 340 391 13,000  Level FlightAware ADS-B
Sun 08:06:07 PM 33.9720 -118.8710 289° West 344 396 13,000 320 Level FlightAware ADS-B
Sun 08:06:42 PM 34.0030 -118.9300 302° West 353 406 13,400 1,553 Climbing FlightAware ADS-B
Sun 08:07:32 PM 34.0510 -119.0090 306° West 354 407 15,200 2,067 Climbing FlightAware ADS-B
Sun 08:08:12 PM 34.0900 -119.0730 306° West 362 417 16,500 2,025 Climbing FlightAware ADS-B
Sun 08:08:52 PM 34.1320 -119.1400 307° West 369 425 17,900 1,835 Climbing FlightAware ADS-B
Sun 08:09:37 PM 34.1780 -119.2160 306° West 380 437 19,100 1,694 Climbing FlightAware ADS-B
Sun 08:10:17 PM 34.2200 -119.2850 306° West 389 448 20,300 1,835 Climbing FlightAware ADS-B
Sun 08:11:02 PM 34.2680 -119.3640 306° West 395 455 21,700 1,725 Climbing FlightAware ADS-B
Sun 08:11:37 PM 34.3050 -119.4250 306° West 405 466 22,600 1,650 Climbing FlightAware ADS-B
Sun 08:12:22 PM 34.3560 -119.5100 306° West 414 476 23,900 988 Climbing FlightAware ADS-B
Sun 08:13:02 PM 34.3960 -119.5770 306° West 414 476 24,000 1,200 Climbing FlightAware ADS-B
Sun 08:13:47 PM 34.4490 -119.6660 306° West 423 487 25,600 2,329 Climbing FlightAware ADS-B
Sun 08:14:27 PM 34.5010 -119.7510 307° West 433 498 27,300 1,835 Climbing FlightAware ADS-B
Sun 08:15:12 PM 34.5600 -119.8340 311° West 446 513 28,200 1,200 Climbing FlightAware ADS-B
Sun 08:15:52 PM 34.6160 -119.9100 312° West 451 519 29,000 960 Climbing FlightAware ADS-B
Sun 08:16:52 PM 34.6970 -120.0200 312° West 456 525 29,800 1,320 Climbing FlightAware ADS-B
Sun 08:17:32 PM 34.7560 -120.0990 312° West 458 527 31,200 2,250 Climbing FlightAware ADS-B
Sun 08:18:12 PM 34.8120 -120.1750 312° West 441 507 32,800 1,200 Climbing FlightAware ADS-B
Sun 08:19:12 PM 34.8870 -120.2790 311° West 442 509 33,200 720 Climbing FlightAware ADS-B
Sun 08:19:52 PM 34.9430 -120.3560 312° West 443 510 34,000 600 Climbing FlightAware ADS-B
Sun 08:20:32 PM 34.9890 -120.4200 311° West 443 510 34,000 1,412 Level FlightAware ADS-B
Sun 08:21:17 PM 35.0620 -120.5180 312° West 433 498 36,000 1,333 Climbing FlightAware ADS-B
Sun 08:22:02 PM 35.1220 -120.6020 311° West 432 497 36,000  Level FlightAware ADS-B
Sun 08:22:42 PM 35.1750 -120.6750 312° West 433 498 36,000  Level FlightAware ADS-B
Sun 08:23:27 PM 35.2330 -120.7550 312° West 435 501 36,000  Level FlightAware ADS-B
Sun 08:24:07 PM 35.2810 -120.8230 311° West 435 501 36,000  Level FlightAware ADS-B
Sun 08:24:52 PM 35.3490 -120.9160 312° West 438 504 36,000  Level FlightAware ADS-B
Sun 08:25:27 PM 35.3910 -120.9750 311° West 440 506 36,000  Level FlightAware ADS-B
Sun 08:26:12 PM 35.4530 -121.0690 309° West 437 503 36,000  Level FlightAware ADS-B
Sun 08:27:02 PM 35.5000 -121.1670 301° West 436 502 36,000  Level FlightAware ADS-B
Sun 08:27:52 PM 35.5420 -121.2600 299° West 436 502 36,000  Level FlightAware ADS-B
Sun 08:28:42 PM 35.5930 -121.3970 295° West 440 506 36,000  Level FlightAware ADS-B
Sun 08:29:27 PM 35.6330 -121.4970 296° West 444 511 36,000  Level FlightAware ADS-B
Sun 08:30:07 PM 35.6640 -121.5760 296° West 444 511 36,000  Level FlightAware ADS-B
Sun 08:30:52 PM 35.7070 -121.6800 297° West 449 517 36,000  Level FlightAware ADS-B
Sun 08:31:47 PM 35.7520 -121.8130 293° West 445 512 36,000  Level FlightAware ADS-B
Sun 08:32:32 PM 35.7730 -121.9090 285° West 445 512 36,000  Level FlightAware ADS-B
Sun 08:33:12 PM 35.7910 -121.9930 285° West 445 512 36,000  Level FlightAware ADS-B
Sun 08:34:07 PM 35.8100 -122.1570 278° West 444 511 36,000  Level FlightAware ADS-B
Sun 08:34:52 PM 35.8290 -122.2780 281° West 443 510 36,000  Level FlightAware ADS-B
Sun 08:35:32 PM 35.8430 -122.3680 281° West 442 509 36,000  Level FlightAware ADS-B
Sun 08:36:12 PM 35.8600 -122.4750 281° West 443 510 36,000  Level FlightAware ADS-B
Sun 08:36:57 PM 35.8770 -122.5860 281° West 443 510 36,000  Level FlightAware ADS-B
Sun 08:37:37 PM 35.8920 -122.6820 281° West 443 510 36,000  Level FlightAware ADS-B
Sun 08:38:17 PM 35.8900 -122.6720 104° East 36,000  Level FlightAware ADS-B
Sun 08:39:02 PM 35.9110 -122.8080 281° West 440 506 36,000  Level FlightAware ADS-B
Sun 08:39:47 PM 35.9250 -122.9090 280° West 440 506 36,000  Level FlightAware ADS-B
Sun 08:40:27 PM 35.9370 -122.9930 280° West 440 506 36,000  Level FlightAware ADS-B
Sun 08:41:07 PM 35.9490 -123.0770 280° West 440 506 36,000  Level FlightAware ADS-B
Sun 08:41:47 PM 35.9610 -123.1610 280° West 440 506 36,000  Level FlightAware ADS-B
Sun 08:42:27 PM 35.9730 -123.2460 280° West 440 506 36,000  Level FlightAware ADS-B
Sun 08:43:17 PM 35.9880 -123.3510 280° West 440 506 36,000  Level FlightAware ADS-B
Sun 08:43:57 PM 36.0290 -123.6120 281° West 436 502 36,000  Level FlightAware ADS-B
Sun 08:44:32 PM 36.0410 -123.6920 281° West 436 502 36,000  Level FlightAware ADS-B
Sun 08:45:22 PM 36.0550 -123.7970 279° West 436 502 36,000  Level FlightAware ADS-B
Sun 08:46:02 PM 36.0670 -123.8800 280° West 436 502 36,000  Level FlightAware ADS-B
Sun 08:46:42 PM 36.0790 -123.9640 280° West 436 502 36,000  Level FlightAware ADS-B
Sun 08:47:22 PM 36.0910 -124.0470 280° West 436 502 36,000  Level FlightAware ADS-B
Sun 08:48:02 PM 36.1150 -124.2130 280° West 440 506 36,000  Level FlightAware ADS-B
Sun 08:48:47 PM 36.1280 -124.3150 279° West 440 506 36,000  Level FlightAware ADS-B
Sun 08:49:27 PM 36.1380 -124.3990 278° West 440 506 36,000  Level FlightAware ADS-B
Sun 08:50:33 PM 36.1700 -124.5875 278° West 440 506 36,000  Level Oakland Center
Sun 08:51:34 PM 36.1894 -124.7372 279° West 441 507 36,000  Level Oakland Center
Sun 08:52:36 PM 36.2089 -124.8881 279° West 443 510 36,000  Level Oakland Center
Sun 08:53:37 PM 36.2311 -125.0489 280° West 443 510 36,000  Level Oakland Center
Sun 08:55:00 PM 36.2559 -125.2478 279° West  Level FlightAware Approximate
Sun 09:02:00 PM 36.3761 -126.2565 279° West  Level FlightAware Approximate
Sun 09:03:00 PM 36.3926 -126.4009 278° West  Level FlightAware Approximate
Sun 09:04:00 PM 36.4089 -126.5453 278° West  Level FlightAware Approximate
Sun 09:05:00 PM 36.4250 -126.6898 278° West  Level FlightAware Approximate
Sun 09:06:00 PM 36.4410 -126.8343 278° West  Level FlightAware Approximate
Sun 09:07:00 PM 36.4331 -126.9759 250° West  Level FlightAware Approximate
Sun 09:08:00 PM 36.3938 -127.1133 250° West  Level FlightAware Approximate
Sun 09:09:00 PM 36.3543 -127.2505 250° West  Level FlightAware Approximate
Sun 09:10:00 PM 36.3145 -127.3880 250° West  Level FlightAware Approximate
Sun 09:11:00 PM 36.2745 -127.5255 250° West  Level FlightAware Approximate
Sun 09:12:00 PM 36.2344 -127.6627 250° West  Level FlightAware Approximate
Sun 09:13:00 PM 36.1939 -127.7991 250° West  Level FlightAware Approximate
Sun 09:14:00 PM 36.1532 -127.9353 250° West  Level FlightAware Approximate
Sun 09:15:00 PM 36.1124 -128.0713 250° West  Level FlightAware Approximate
Sun 09:16:00 PM 36.0714 -128.2072 250° West  Level FlightAware Approximate
Sun 09:17:00 PM 36.0303 -128.3430 250° West  Level FlightAware Approximate
Sun 09:18:00 PM 35.9890 -128.4787 249° West  Level FlightAware Approximate
Sun 09:19:00 PM 35.9476 -128.6142 249° West  Level FlightAware Approximate
Sun 09:20:00 PM 35.9060 -128.7495 249° West  Level FlightAware Approximate
Sun 09:21:00 PM 35.8643 -128.8847 249° West  Level FlightAware Approximate
Sun 09:22:00 PM 35.8224 -129.0198 249° West  Level FlightAware Approximate
Sun 09:23:00 PM 35.7803 -129.1547 249° West  Level FlightAware Approximate
Sun 09:24:00 PM 35.7382 -129.2895 249° West  Level FlightAware Approximate
Sun 09:25:00 PM 35.6958 -129.4241 249° West  Level FlightAware Approximate
Sun 09:26:00 PM 35.6533 -129.5586 249° West  Level FlightAware Approximate
Sun 09:27:00 PM 35.6107 -129.6930 249° West  Level FlightAware Approximate
Sun 09:28:00 PM 35.5679 -129.8272 249° West  Level FlightAware Approximate
Sun 09:29:00 PM 35.5250 -129.9613 249° West  Level FlightAware Approximate
Sun 09:30:00 PM 35.4819 -130.0952 248° West  Level FlightAware Approximate
Sun 09:31:00 PM 35.4387 -130.2290 248° West  Level FlightAware Approximate
Sun 09:32:00 PM 35.3953 -130.3626 248° West  Level FlightAware Approximate
Sun 09:33:00 PM 35.3517 -130.4961 248° West  Level FlightAware Approximate
Sun 09:34:00 PM 35.3081 -130.6295 248° West  Level FlightAware Approximate
Sun 09:35:00 PM 35.2643 -130.7626 248° West  Level FlightAware Approximate
Sun 09:36:00 PM 35.2203 -130.8957 248° West  Level FlightAware Approximate
Sun 09:37:00 PM 35.1762 -131.0286 248° West  Level FlightAware Approximate
Sun 09:38:00 PM 35.1319 -131.1614 248° West  Level FlightAware Approximate
Sun 09:39:00 PM 35.0875 -131.2940 248° West  Level FlightAware Approximate
Sun 09:40:00 PM 35.0430 -131.4265 248° West  Level FlightAware Approximate
Sun 09:41:00 PM 34.9983 -131.5588 248° West  Level FlightAware Approximate
Sun 09:42:00 PM 34.9535 -131.6910 248° West  Level FlightAware Approximate
Sun 09:43:00 PM 34.9085 -131.8231 247° West  Level FlightAware Approximate
Sun 09:44:00 PM 34.8634 -131.9550 247° West  Level FlightAware Approximate
Sun 09:45:00 PM 34.8181 -132.0867 247° West  Level FlightAware Approximate
Sun 09:46:00 PM 34.7727 -132.2184 247° West  Level FlightAware Approximate
Sun 09:47:00 PM 34.7272 -132.3498 247° West  Level FlightAware Approximate
Sun 09:48:00 PM 34.6815 -132.4811 247° West  Level FlightAware Approximate
Sun 09:49:00 PM 34.6357 -132.6123 247° West  Level FlightAware Approximate
Sun 09:50:00 PM 34.5897 -132.7433 247° West  Level FlightAware Approximate
Sun 09:51:00 PM 34.5436 -132.8742 247° West  Level FlightAware Approximate
Sun 09:52:00 PM 34.4974 -133.0050 247° West  Level FlightAware Approximate
Sun 09:53:00 PM 34.4510 -133.1356 247° West  Level FlightAware Approximate
Sun 09:54:00 PM 34.4045 -133.2660 247° West  Level FlightAware Approximate
Sun 09:55:00 PM 34.3578 -133.3963 247° West  Level FlightAware Approximate
Sun 09:56:00 PM 34.3110 -133.5265 247° West  Level FlightAware Approximate
Sun 09:57:00 PM 34.2641 -133.6565 246° West  Level FlightAware Approximate
Sun 09:58:00 PM 34.2170 -133.7864 246° West  Level FlightAware Approximate
Sun 09:59:00 PM 34.1698 -133.9161 246° West  Level FlightAware Approximate
Sun 10:00:00 PM 34.1225 -134.0457 246° West  Level FlightAware Approximate
Sun 10:01:00 PM 34.0750 -134.1751 246° West  Level FlightAware Approximate
Sun 10:02:00 PM 34.0274 -134.3044 246° West  Level FlightAware Approximate
Sun 10:03:00 PM 33.9796 -134.4335 246° West  Level FlightAware Approximate
Sun 10:03:29 PM 34.0167 -134.3500 246° West 434 499 36,000  Level Oakland Oceanic (ODAPS)
Sun 10:04:00 PM 33.9316 -134.5625 246° West  Level FlightAware Approximate
Sun 10:05:00 PM 33.8835 -134.6913 246° West  Level FlightAware Approximate
Sun 10:06:00 PM 33.8354 -134.8200 246° West  Level FlightAware Approximate
Sun 10:07:00 PM 33.7870 -134.9485 246° West  Level FlightAware Approximate
Sun 10:08:00 PM 33.7385 -135.0769 246° West  Level FlightAware Approximate
Sun 10:09:00 PM 33.4709 -135.7981 245° Southwest 434 499 36,000  Level FlightAware Transoceanic
Sun 10:10:00 PM 33.4205 -135.9288 245° Southwest 434 499 36,000  Level FlightAware Transoceanic
Sun 10:11:00 PM 33.3699 -136.0594 245° Southwest 434 499 36,000  Level FlightAware Transoceanic
Sun 10:12:00 PM 33.3192 -136.1898 245° Southwest 434 499 36,000  Level FlightAware Transoceanic
Sun 10:13:00 PM 33.2683 -136.3201 245° Southwest 434 499 36,000  Level FlightAware Transoceanic
Sun 10:14:00 PM 33.2174 -136.4502 245° Southwest 434 499 36,000  Level FlightAware Transoceanic
Sun 10:15:00 PM 33.1662 -136.5802 245° Southwest 434 499 36,000  Level FlightAware Transoceanic
Sun 10:16:00 PM 33.1150 -136.7100 245° Southwest 434 499 36,000  Level FlightAware Transoceanic
Sun 10:17:00 PM 33.0636 -136.8397 245° Southwest 434 499 36,000  Level FlightAware Transoceanic
Sun 10:18:00 PM 33.0121 -136.9692 245° Southwest 434 499 36,000  Level FlightAware Transoceanic
Sun 10:19:00 PM 32.9604 -137.0986 245° Southwest 434 499 36,000  Level FlightAware Transoceanic
Sun 10:20:00 PM 32.9086 -137.2278 244° Southwest 434 499 36,000  Level FlightAware Transoceanic
Sun 10:21:00 PM 32.8567 -137.3568 244° Southwest 434 499 36,000  Level FlightAware Transoceanic
Sun 10:22:00 PM 32.8046 -137.4857 244° Southwest 434 499 36,000  Level FlightAware Transoceanic
Sun 10:23:00 PM 32.7524 -137.6145 244° Southwest 434 499 36,000  Level FlightAware Transoceanic
Sun 10:24:00 PM 32.7001 -137.7431 244° Southwest 434 499 36,000  Level FlightAware Transoceanic
Sun 10:25:00 PM 32.6476 -137.8716 244° Southwest 434 499 36,000  Level FlightAware Transoceanic
Sun 10:26:00 PM 32.5951 -137.9999 244° Southwest 434 499 36,000  Level FlightAware Transoceanic
Sun 10:27:00 PM 32.5423 -138.1280 244° Southwest 434 499 36,000  Level FlightAware Transoceanic
Sun 10:28:00 PM 32.4895 -138.2560 244° Southwest 434 499 36,000  Level FlightAware Transoceanic
Sun 10:29:00 PM 32.4365 -138.3839 244° Southwest 434 499 36,000  Level FlightAware Transoceanic
Sun 10:30:00 PM 32.3834 -138.5116 244° Southwest 434 499 36,000  Level FlightAware Transoceanic
Sun 10:31:00 PM 32.3302 -138.6391 244° Southwest 434 499 36,000  Level FlightAware Transoceanic
Sun 10:32:00 PM 32.2768 -138.7666 244° Southwest 434 499 36,000  Level FlightAware Transoceanic
Sun 10:33:00 PM 32.2233 -138.8938 244° Southwest 434 499 36,000  Level FlightAware Transoceanic
Sun 10:34:00 PM 32.1697 -139.0209 243° Southwest 434 499 36,000  Level FlightAware Transoceanic
Sun 10:35:00 PM 32.1160 -139.1479 243° Southwest 434 499 36,000  Level FlightAware Transoceanic
Sun 10:36:00 PM 32.0621 -139.2747 243° Southwest 434 499 36,000  Level FlightAware Transoceanic
Sun 10:37:00 PM 32.0081 -139.4013 243° Southwest 434 499 36,000  Level FlightAware Transoceanic
Sun 10:38:00 PM 31.9540 -139.5278 243° Southwest 434 499 36,000  Level FlightAware Transoceanic
Sun 10:39:00 PM 31.8997 -139.6542 243° Southwest 434 499 36,000  Level FlightAware Transoceanic
Sun 10:40:00 PM 31.8454 -139.7804 243° Southwest 434 499 36,000  Level FlightAware Transoceanic
Sun 10:41:00 PM 31.7909 -139.9065 243° Southwest 434 499 36,000  Level FlightAware Transoceanic
Sun 10:42:00 PM 31.7363 -140.0324 243° Southwest 434 499 36,000  Level FlightAware Transoceanic
Sun 10:43:00 PM 31.6815 -140.1581 243° Southwest 434 499 36,000  Level FlightAware Transoceanic
Sun 10:44:00 PM 31.6266 -140.2837 243° Southwest 434 499 36,000  Level FlightAware Transoceanic
Sun 10:45:00 PM 31.5717 -140.4092 243° Southwest 434 499 36,000  Level FlightAware Transoceanic
Sun 10:46:00 PM 31.5166 -140.5345 243° Southwest 434 499 36,000  Level FlightAware Transoceanic
Sun 10:47:00 PM 31.4613 -140.6597 243° Southwest 434 499 36,000  Level FlightAware Transoceanic
Sun 10:48:00 PM 31.4060 -140.7847 243° Southwest 434 499 36,000  Level FlightAware Transoceanic
Sun 10:49:00 PM 31.3505 -140.9096 242° Southwest 434 499 36,000  Level FlightAware Transoceanic
Sun 10:50:00 PM 31.2949 -141.0343 242° Southwest 434 499 36,000  Level FlightAware Transoceanic
Sun 10:51:00 PM 31.2392 -141.1589 242° Southwest 434 499 36,000  Level FlightAware Transoceanic
Sun 10:52:00 PM 31.1833 -141.2833 242° Southwest 434 499 36,000  Level FlightAware Transoceanic
Sun 10:53:00 PM 31.1267 -141.4088 242° Southwest 434 499 36,000  Level FlightAware Transoceanic
Sun 10:54:00 PM 31.0700 -141.5341 242° Southwest 434 499 36,000  Level FlightAware Transoceanic
Sun 10:55:00 PM 31.0131 -141.6592 242° Southwest 434 499 36,000  Level FlightAware Transoceanic
Sun 10:55:18 PM 31.1833 -141.2833 242° Southwest 429 494 36,000  Level Oakland Oceanic (ODAPS)
Sun 10:56:00 PM 30.9562 -141.7842 242° Southwest 434 499 36,000  Level FlightAware Transoceanic
Sun 10:57:00 PM 30.8991 -141.9091 242° Southwest 434 499 36,000  Level FlightAware Transoceanic
Sun 10:58:00 PM 30.8418 -142.0338 242° Southwest 434 499 36,000  Level FlightAware Transoceanic
Sun 10:59:00 PM 30.7845 -142.1584 242° Southwest 434 499 36,000  Level FlightAware Transoceanic
Sun 11:00:00 PM 30.7271 -142.2828 242° Southwest 434 499 36,000  Level FlightAware Transoceanic
Sun 11:01:00 PM 30.7353 -142.2650 242° Southwest 429 494 36,000  Level FlightAware Transoceanic
Sun 11:02:00 PM 30.6787 -142.3871 242° Southwest 429 494 36,000  Level FlightAware Transoceanic
Sun 11:03:00 PM 30.6221 -142.5090 242° Southwest 429 494 36,000  Level FlightAware Transoceanic
Sun 11:04:00 PM 30.5653 -142.6308 242° Southwest 429 494 36,000  Level FlightAware Transoceanic
Sun 11:05:00 PM 30.5085 -142.7524 241° Southwest 429 494 36,000  Level FlightAware Transoceanic
Sun 11:06:00 PM 30.4515 -142.8739 241° Southwest 429 494 36,000  Level FlightAware Transoceanic
Sun 11:07:00 PM 30.3944 -142.9952 241° Southwest 429 494 36,000  Level FlightAware Transoceanic
Sun 11:08:00 PM 30.3372 -143.1165 241° Southwest 429 494 36,000  Level FlightAware Transoceanic
Sun 11:09:00 PM 30.2799 -143.2375 241° Southwest 429 494 36,000  Level FlightAware Transoceanic
Sun 11:10:00 PM 30.2225 -143.3584 241° Southwest 429 494 36,000  Level FlightAware Transoceanic
Sun 11:11:00 PM 30.1649 -143.4792 241° Southwest 429 494 36,000  Level FlightAware Transoceanic
Sun 11:12:00 PM 30.1073 -143.5999 241° Southwest 429 494 36,000  Level FlightAware Transoceanic
Sun 11:13:00 PM 30.0495 -143.7204 241° Southwest 429 494 36,000  Level FlightAware Transoceanic
Sun 11:14:00 PM 29.9916 -143.8407 241° Southwest 429 494 36,000  Level FlightAware Transoceanic
Sun 11:15:00 PM 29.9336 -143.9610 241° Southwest 429 494 36,000  Level FlightAware Transoceanic
Sun 11:16:00 PM 29.8756 -144.0810 241° Southwest 429 494 36,000  Level FlightAware Transoceanic
Sun 11:17:00 PM 29.8174 -144.2010 241° Southwest 429 494 36,000  Level FlightAware Transoceanic
Sun 11:18:00 PM 29.7591 -144.3208 241° Southwest 429 494 36,000  Level FlightAware Transoceanic
Sun 11:19:00 PM 29.7006 -144.4404 241° Southwest 429 494 36,000  Level FlightAware Transoceanic
Sun 11:20:00 PM 29.6421 -144.5600 241° Southwest 429 494 36,000  Level FlightAware Transoceanic
Sun 11:21:00 PM 29.5835 -144.6793 241° Southwest 429 494 36,000  Level FlightAware Transoceanic
Sun 11:22:00 PM 29.5248 -144.7986 240° Southwest 429 494 36,000  Level FlightAware Transoceanic
Sun 11:23:00 PM 29.4659 -144.9177 240° Southwest 429 494 36,000  Level FlightAware Transoceanic
Sun 11:24:00 PM 29.4070 -145.0367 240° Southwest 429 494 36,000  Level FlightAware Transoceanic
Sun 11:25:00 PM 29.3479 -145.1555 240° Southwest 429 494 36,000  Level FlightAware Transoceanic
Sun 11:26:00 PM 29.2888 -145.2742 240° Southwest 429 494 36,000  Level FlightAware Transoceanic
Sun 11:27:00 PM 29.2295 -145.3927 240° Southwest 429 494 36,000  Level FlightAware Transoceanic
Sun 11:28:00 PM 29.1701 -145.5112 240° Southwest 429 494 36,000  Level FlightAware Transoceanic
Sun 11:29:00 PM 29.1107 -145.6294 240° Southwest 429 494 36,000  Level FlightAware Transoceanic
Sun 11:30:00 PM 29.0511 -145.7476 240° Southwest 429 494 36,000  Level FlightAware Transoceanic
Sun 11:31:00 PM 28.9914 -145.8656 240° Southwest 429 494 36,000  Level FlightAware Transoceanic
Sun 11:32:00 PM 28.9316 -145.9834 240° Southwest 429 494 36,000  Level FlightAware Transoceanic
Sun 11:33:00 PM 28.8718 -146.1012 240° Southwest 429 494 36,000  Level FlightAware Transoceanic
Sun 11:34:00 PM 28.8118 -146.2188 240° Southwest 429 494 36,000  Level FlightAware Transoceanic
Sun 11:35:00 PM 28.7517 -146.3362 240° Southwest 429 494 36,000  Level FlightAware Transoceanic
Sun 11:36:00 PM 28.6915 -146.4536 240° Southwest 429 494 36,000  Level FlightAware Transoceanic
Sun 11:37:00 PM 28.6312 -146.5708 240° Southwest 429 494 36,000  Level FlightAware Transoceanic
Sun 11:38:00 PM 28.5708 -146.6878 240° Southwest 429 494 36,000  Level FlightAware Transoceanic
Sun 11:39:00 PM 28.5103 -146.8048 239° Southwest 429 494 36,000  Level FlightAware Transoceanic
Sun 11:40:00 PM 28.4498 -146.9216 239° Southwest 429 494 36,000  Level FlightAware Transoceanic
Sun 11:41:00 PM 28.3891 -147.0382 239° Southwest 429 494 36,000  Level FlightAware Transoceanic
Sun 11:42:00 PM 28.3283 -147.1547 239° Southwest 429 494 36,000  Level FlightAware Transoceanic
Sun 11:43:00 PM 28.2674 -147.2711 239° Southwest 429 494 36,000  Level FlightAware Transoceanic
Sun 11:44:00 PM 28.2064 -147.3874 239° Southwest 429 494 36,000  Level FlightAware Transoceanic
Sun 11:45:00 PM 28.1453 -147.5035 239° Southwest 429 494 36,000  Level FlightAware Transoceanic
Sun 11:46:00 PM 28.0841 -147.6195 239° Southwest 429 494 36,000  Level FlightAware Transoceanic
Sun 11:47:00 PM 28.0229 -147.7353 239° Southwest 429 494 36,000  Level FlightAware Transoceanic
Sun 11:48:00 PM 27.9615 -147.8511 239° Southwest 429 494 36,000  Level FlightAware Transoceanic
Sun 11:49:00 PM 27.9000 -147.9667 239° Southwest 429 494 36,000  Level FlightAware Transoceanic
Sun 11:50:00 PM 27.8371 -148.0845 239° Southwest 429 494 36,000  Level FlightAware Transoceanic
Sun 11:51:00 PM 27.7740 -148.2021 239° Southwest 429 494 36,000  Level FlightAware Transoceanic
Sun 11:52:00 PM 27.7109 -148.3196 239° Southwest 429 494 36,000  Level FlightAware Transoceanic
Sun 11:52:12 PM 27.9000 -147.9667 239° Southwest 429 494 36,000  Level Oakland Oceanic (ODAPS)
Sun 11:53:00 PM 27.6477 -148.4370 239° Southwest 429 494 36,000  Level FlightAware Transoceanic
Sun 11:54:00 PM 27.5843 -148.5542 239° Southwest 429 494 36,000  Level FlightAware Transoceanic
Sun 11:55:00 PM 27.5209 -148.6713 239° Southwest 429 494 36,000  Level FlightAware Transoceanic
Sun 11:56:00 PM 27.4574 -148.7883 238° Southwest 429 494 36,000  Level FlightAware Transoceanic
Sun 11:57:00 PM 27.3937 -148.9051 238° Southwest 429 494 36,000  Level FlightAware Transoceanic
Sun 11:58:00 PM 27.4028 -148.8884 238° Southwest 429 494 36,000  Level FlightAware Transoceanic
Sun 11:59:00 PM 27.3403 -149.0030 238° Southwest 429 494 36,000  Level FlightAware Transoceanic
Mon 12:00:00 AM 27.2776 -149.1175 238° Southwest 429 494 36,000  Level FlightAware Transoceanic
Mon 12:01:00 AM 27.2148 -149.2319 238° Southwest 429 494 36,000  Level FlightAware Transoceanic
Mon 12:02:00 AM 27.1520 -149.3461 238° Southwest 429 494 36,000  Level FlightAware Transoceanic
Mon 12:03:00 AM 27.0891 -149.4603 238° Southwest 429 494 36,000  Level FlightAware Transoceanic
Mon 12:04:00 AM 27.0260 -149.5742 238° Southwest 429 494 36,000  Level FlightAware Transoceanic
Mon 12:05:00 AM 26.9629 -149.6881 238° Southwest 429 494 36,000  Level FlightAware Transoceanic
Mon 12:06:00 AM 26.8997 -149.8018 238° Southwest 429 494 36,000  Level FlightAware Transoceanic
Mon 12:07:00 AM 26.8364 -149.9154 238° Southwest 429 494 36,000  Level FlightAware Transoceanic
Mon 12:08:00 AM 26.7730 -150.0289 238° Southwest 429 494 36,000  Level FlightAware Transoceanic
Mon 12:09:00 AM 26.7095 -150.1423 238° Southwest 429 494 36,000  Level FlightAware Transoceanic
Mon 12:10:00 AM 26.6459 -150.2555 238° Southwest 429 494 36,000  Level FlightAware Transoceanic
Mon 12:11:00 AM 26.5822 -150.3686 238° Southwest 429 494 36,000  Level FlightAware Transoceanic
Mon 12:12:00 AM 26.5185 -150.4816 238° Southwest 429 494 36,000  Level FlightAware Transoceanic
Mon 12:13:00 AM 26.4546 -150.5944 238° Southwest 429 494 36,000  Level FlightAware Transoceanic
Mon 12:14:00 AM 26.3907 -150.7071 238° Southwest 429 494 36,000  Level FlightAware Transoceanic
Mon 12:15:00 AM 26.3267 -150.8197 238° Southwest 429 494 36,000  Level FlightAware Transoceanic
Mon 12:16:00 AM 26.2625 -150.9322 238° Southwest 429 494 36,000  Level FlightAware Transoceanic
Mon 12:17:00 AM 26.1983 -151.0445 237° Southwest 429 494 36,000  Level FlightAware Transoceanic
Mon 12:18:00 AM 26.1341 -151.1568 237° Southwest 429 494 36,000  Level FlightAware Transoceanic
Mon 12:19:00 AM 26.0697 -151.2688 237° Southwest 429 494 36,000  Level FlightAware Transoceanic
Mon 12:20:00 AM 26.0052 -151.3808 237° Southwest 429 494 36,000  Level FlightAware Transoceanic
Mon 12:21:00 AM 25.9407 -151.4927 237° Southwest 429 494 36,000  Level FlightAware Transoceanic
Mon 12:22:00 AM 25.8760 -151.6044 237° Southwest 429 494 36,000  Level FlightAware Transoceanic
Mon 12:23:00 AM 25.8113 -151.7160 237° Southwest 429 494 36,000  Level FlightAware Transoceanic
Mon 12:24:00 AM 25.7465 -151.8275 237° Southwest 429 494 36,000  Level FlightAware Transoceanic
Mon 12:25:00 AM 25.6816 -151.9389 237° Southwest 429 494 36,000  Level FlightAware Transoceanic
Mon 12:26:00 AM 25.6167 -152.0501 237° Southwest 429 494 36,000  Level FlightAware Transoceanic
Mon 12:27:00 AM 25.5516 -152.1612 237° Southwest 429 494 36,000  Level FlightAware Transoceanic
Mon 12:28:00 AM 25.4865 -152.2722 237° Southwest 429 494 36,000  Level FlightAware Transoceanic
Mon 12:29:00 AM 25.4212 -152.3831 237° Southwest 429 494 36,000  Level FlightAware Transoceanic
Mon 12:30:00 AM 25.3559 -152.4939 237° Southwest 429 494 36,000  Level FlightAware Transoceanic
Mon 12:31:00 AM 25.2906 -152.6045 237° Southwest 429 494 36,000  Level FlightAware Transoceanic
Mon 12:32:00 AM 25.2251 -152.7150 237° Southwest 429 494 36,000  Level FlightAware Transoceanic
Mon 12:33:00 AM 25.1595 -152.8254 237° Southwest 429 494 36,000  Level FlightAware Transoceanic
Mon 12:34:00 AM 25.0939 -152.9357 237° Southwest 429 494 36,000  Level FlightAware Transoceanic
Mon 12:35:00 AM 25.0282 -153.0459 237° Southwest 429 494 36,000  Level FlightAware Transoceanic
Mon 12:36:00 AM 24.9624 -153.1559 237° Southwest 429 494 36,000  Level FlightAware Transoceanic
Mon 12:37:00 AM 24.8965 -153.2659 237° Southwest 429 494 36,000  Level FlightAware Transoceanic
Mon 12:38:00 AM 24.8305 -153.3757 236° Southwest 429 494 36,000  Level FlightAware Transoceanic
Mon 12:39:00 AM 24.7645 -153.4854 236° Southwest 429 494 36,000  Level FlightAware Transoceanic
Mon 12:40:00 AM 24.6984 -153.5950 236° Southwest 429 494 36,000  Level FlightAware Transoceanic
Mon 12:41:00 AM 24.6322 -153.7044 236° Southwest 429 494 36,000  Level FlightAware Transoceanic
Mon 12:42:00 AM 24.5659 -153.8138 236° Southwest 429 494 36,000  Level FlightAware Transoceanic
Mon 12:43:00 AM 24.4995 -153.9230 236° Southwest 429 494 36,000  Level FlightAware Transoceanic
Mon 12:44:00 AM 24.4331 -154.0321 236° Southwest 429 494 36,000  Level FlightAware Transoceanic
Mon 12:45:00 AM 24.3666 -154.1411 236° Southwest 429 494 36,000  Level FlightAware Transoceanic
Mon 12:46:00 AM 24.3000 -154.2500 236° Southwest 429 494 36,000  Level FlightAware Transoceanic
Mon 12:47:00 AM 24.2307 -154.3627 236° Southwest 429 494 36,000  Level FlightAware Transoceanic
Mon 12:48:00 AM 24.1613 -154.4753 236° Southwest 429 494 36,000  Level FlightAware Transoceanic
Mon 12:49:00 AM 24.0919 -154.5878 236° Southwest 429 494 36,000  Level FlightAware Transoceanic
Mon 12:50:00 AM 24.0224 -154.7002 236° Southwest 429 494 36,000  Level FlightAware Transoceanic
Mon 12:50:17 AM 24.0333 -154.6333 236° Southwest 450 518 36,000  Level Honolulu Center
Mon 12:51:00 AM 23.9527 -154.8124 236° Southwest 429 494 36,000  Level FlightAware Transoceanic
Mon 12:51:17 AM 23.9667 -154.7500 238° Southwest 460 529 36,000  Level Honolulu Center
Mon 12:52:00 AM 23.8830 -154.9245 236° Southwest 429 494 36,000  Level FlightAware Transoceanic
Mon 12:52:18 AM 23.8667 -154.8500 222° Southwest 460 529 36,000  Level Honolulu Center
Mon 12:53:00 AM 23.8133 -155.0365 236° Southwest 429 494 36,000  Level FlightAware Transoceanic
Mon 12:53:18 AM 23.7833 -154.9500 228° Southwest 460 529 36,000  Level Honolulu Center
Mon 12:54:00 AM 23.7434 -155.1484 236° Southwest 429 494 36,000  Level FlightAware Transoceanic
Mon 12:54:18 AM 23.6833 -155.0333 217° Southwest 460 529 36,000  Level Honolulu Center
Mon 12:55:00 AM 23.6735 -155.2602 236° Southwest 429 494 36,000  Level FlightAware Transoceanic
Mon 12:55:18 AM 23.6000 -155.1333 228° Southwest 450 518 36,000  Level Honolulu Center
Mon 12:56:18 AM 23.5167 -155.2333 228° Southwest 450 518 36,000  Level Honolulu Center
Mon 12:57:18 AM 23.4167 -155.3333 223° Southwest 450 518 36,000 1,000 Level Honolulu Center
Mon 12:58:18 AM 23.3333 -155.4333 228° Southwest 450 518 38,000 1,000 Climbing Honolulu Center
Mon 12:59:18 AM 23.2500 -155.5167 223° Southwest 450 518 38,000 -248 Level Honolulu Center
Mon 01:00:19 AM 23.1667 -155.6167 228° Southwest 440 506 37,500 -347 Descending Honolulu Center
Mon 01:01:19 AM 23.0667 -155.7167 223° Southwest 450 518 37,300 -200 Descending Honolulu Center
Mon 01:02:19 AM 22.9833 -155.8167 228° Southwest 450 518 37,100 -200 Descending Honolulu Center
Mon 01:03:19 AM 22.9000 -155.9167 228° Southwest 450 518 36,900 -150 Descending Honolulu Center
Mon 01:04:19 AM 22.8000 -156.0000 218° Southwest 450 518 36,800 -150 Descending Honolulu Center
Mon 01:05:19 AM 22.7167 -156.1000 228° Southwest 450 518 36,600 -200 Descending Honolulu Center
Mon 01:06:19 AM 22.6167 -156.2000 223° Southwest 460 529 36,400 -200 Descending Honolulu Center
Mon 01:07:19 AM 22.5333 -156.3000 228° Southwest 450 518 36,200 -200 Descending Honolulu Center
Mon 01:08:19 AM 22.4333 -156.4000 223° Southwest 460 529 36,000 -1,350 Descending Honolulu Center
Mon 01:09:19 AM 22.3333 -156.4833 218° Southwest 480 552 33,500 -2,678 Descending Honolulu Center
Mon 01:10:20 AM 22.2333 -156.5667 218° Southwest 480 552 30,600 -2,479 Descending Honolulu Center
Mon 01:11:20 AM 22.1167 -156.6667 218° Southwest 470 541 28,500 -1,950 Descending Honolulu Center
Mon 01:12:20 AM 22.0333 -156.7500 223° Southwest 450 518 26,700 -1,950 Descending Honolulu Center
Mon 01:13:20 AM 21.9500 -156.8333 223° Southwest 440 506 24,600 -2,000 Descending Honolulu Center
Mon 01:14:20 AM 21.8833 -156.9333 234° Southwest 420 483 22,700 -1,750 Descending Honolulu Center
Mon 01:15:20 AM 21.8000 -157.0167 223° Southwest 400 460 21,100 -1,919 Descending Honolulu Center
Mon 01:20:57 AM 21.4190 -157.5030 223° Southwest 316 364 10,000 -1,790 Descending FlightAware ADS-B
Mon 01:21:32 AM 21.3820 -157.5340 218° Southwest 285 328 10,000 -655 Level FlightAware ADS-B
Mon 01:21:52 AM 21.3560 -157.5550 217° Southwest 279 321 9,400 -1,500 Descending FlightAware ADS-B
Mon 01:22:12 AM 21.3420 -157.5670 219° Southwest 276 318 9,000 -1,867 Descending FlightAware ADS-B
Mon 01:22:37 AM 21.3110 -157.5920 217° Southwest 273 314 8,000 -2,182 Descending FlightAware ADS-B
Mon 01:23:07 AM 21.2810 -157.6170 218° Southwest 269 310 7,000 -1,840 Descending FlightAware ADS-B
Mon 01:23:52 AM 21.2400 -157.6510 218° Southwest 265 305 5,700 -1,200 Descending FlightAware ADS-B
Mon 01:24:27 AM 21.2090 -157.6770 218° Southwest 259 298 5,400 -1,146 Descending FlightAware ADS-B
Mon 01:25:21 AM 21.1667 -157.7167 218° Southwest 230 265 4,000 -895 Descending Honolulu Center
Mon 01:26:21 AM 21.2000 -157.7667 306° West 210 242 3,700 -550 Descending Honolulu Center
Mon 01:27:21 AM 21.2333 -157.8000 317° Northwest 180 207 2,900 -1,050 Descending Honolulu Center
Mon 01:28:21 AM 21.2667 -157.8500 306° West 150 173 1,600 -1,150 Descending Honolulu Center
Mon 01:29:21 AM 21.3000 -157.8667 335° Northwest 140 161 600 -1,000 Descending Honolulu Center

Login

Don't have an account? Register now (free) for customized features, flight alerts, and more!